Rock Island, IL

12:57 PM CDT on August 22, 2014 (GMT -0500)
East Central Davenport | Change Station
CLOSE
Current Station
Personal Weather Station
Location: Davenport, IA
Elevation: 692 ft
Nearby Weather Stations

Elev 692 ft 41.54 °N, 90.55 °W | Updated 24 seconds ago

Rain
Rain
77.2 °F
Feels Like 78 °F
N
1.1
Wind Variable Wind from WSW
Gusts 3.0 mph

Today
High -- | Low -- °F
--% Chance of Precip.
Yesterday
High -- | Low -- °F
Precip. -- in
6:18 AM 7:51 PM
Waning Crescent, 7% visible
Pressure 29.93 in
Visibility 10.0 miles
Clouds Clear
Heat Index 78 °F
Dew Point 77 °F
Humidity 99%
Rainfall 0.00 in
Snow Depth Not available.
UV 10 out of 12
Pollen 6.40 out of 12
Air Quality Not available.
Flu Activity Not available.
METAR KMLI 221752Z 21010KT 10SM CLR 26/23 A2994 RMK AO2 SLP135 60044 T02610233 10261 20217 58002

More Conditions Fewer Conditions

Pressure 29.93 in
Visibility 10.0 miles
Clouds Clear
Heat Index 78 °F
Dew Point 77 °F
Humidity 99%
Rainfall 0.00 in
Snow Depth Not available.
UV 10 out of 12
Pollen 6.40 out of 12
Air Quality Not available.
Flu Activity Not available.
METAR KMLI 221752Z 21010KT 10SM CLR 26/23 A2994 RMK AO2 SLP135 60044 T02610233 10261 20217 58002

More Conditions Fewer Conditions

10-Day Weather Forecast

Almanac

Astronomy

Aug. 22, 2014 Rise Set
Actual Time 6:18 AM CDT 7:51 PM CDT
Civil Twilight 5:49 AM CDT 8:20 PM CDT
Nautical Twilight 5:13 AM CDT 8:55 PM CDT
Astronomical Twilight 4:36 AM CDT 9:32 PM CDT
Moon 3:40 AM CDT 6:00 PM CDT
Length of Visible Light 14h 31m
Length of Day
13h 32m
Tomorrow will be 2m 33s shorter.
Waning Crescent, 7% of the Moon is Illuminated
Today
Waning Crescent
Aug 25
New
Sep 2
First Quarter
Sep 8
Full
Sep 15
Last Quarter

Today's Extremes

State Highs State Lows

Community

WunderPhotos

Upload Photos

1,746,206 photos uploaded!

WunderBlogs® & News

Nearby

Snow Depth

Station Depth Elevation
No new snow has been reported.

Earthquake Activity

City Distance Mag. Time & Date
No recent earthquake activity has been reported nearby.
Minimum magnitude displayed is 2.5.

Coastal Water Temperatures

Place Temperature
No Stations Reporting

Nearby Weather Stations